Terminal Aerodrome Forecast
Issued by NWS Austin/San Antonio, TX

Home | Current Version | Previous Version | Text Only | Print | Product List | Glossary On
Versions: 1 2 3 4 5 6 7 8 9 10 11 12 13 14 15
000
FTUS44 KEWX 300528
TAFSAT
TAF
KSAT 300528Z 3006/3112 16010KT P6SM SKC
     FM300700 17005KT P6SM BKN009 OVC015
     FM300900 16005KT 4SM BR OVC005
      TEMPO 3010/3014 1SM BR OVC003
     FM301500 18005KT P6SM OVC015
     FM302000 17010KT P6SM BKN035
     FM310500 18010KT P6SM BKN010
     FM310700 18005KT P6SM OVC007=

USA.gov is the U.S. government's official web portal to all federal, state and local government web resources and services.